Time;durP1;ratioP1;P1;durP2;ratioP2;P2;SDS_P1;SDS_P2;PMS_P1;PMS_P2;Temp;Humidity;BMP_temperature;BMP_pressure;BME280_temperature;BME280_humidity;BME280_pressure;Samples;Min_cycle;Max_cycle;Signal;HPM_P1;HPM_P2
2022/03/19 00:02:21;;;;;;;117.88;34.03;;;;;;;;;;5093513;28;20211;-71
2022/03/19 00:04:49;;;;;;;119.18;38.20;;;;;;;;;;5093838;28;20208;-69
2022/03/19 00:07:16;;;;;;;119.28;37.40;;;;;;;;;;5102698;28;20226;-70
2022/03/19 00:09:45;;;;;;;127.22;39.25;;;;;;;;;;5114109;28;20553;-71
2022/03/19 00:12:14;;;;;;;118.78;36.60;;;;;;;;;;5113818;28;20727;-71
2022/03/19 00:14:41;;;;;;;123.07;38.25;;;;;;;;;;5113945;28;20405;-71
2022/03/19 00:17:10;;;;;;;120.90;37.38;;;;;;;;;;5113264;28;20227;-70
2022/03/19 00:19:37;;;;;;;115.53;35.50;;;;;;;;;;5113571;28;20235;-71
2022/03/19 00:22:05;;;;;;;118.90;36.05;;;;;;;;;;5113652;28;20632;-70
2022/03/19 00:24:33;;;;;;;119.75;37.58;;;;;;;;;;5113876;28;20560;-72
2022/03/19 00:27:01;;;;;;;126.18;37.65;;;;;;;;;;5113250;28;20223;-69
2022/03/19 00:29:28;;;;;;;113.97;36.63;;;;;;;;;;5112840;28;20295;-70
2022/03/19 00:31:55;;;;;;;119.30;37.25;;;;;;;;;;5113132;28;20230;-72
2022/03/19 00:34:22;;;;;;;121.35;40.67;;;;;;;;;;5113140;28;20294;-69
2022/03/19 00:36:50;;;;;;;118.47;37.15;;;;;;;;;;5113153;28;20307;-72
2022/03/19 00:39:17;;;;;;;116.85;37.40;;;;;;;;;;5092709;28;20573;-70
2022/03/19 00:41:45;;;;;;;117.90;35.22;;;;;;;;;;5093123;28;20208;-70
2022/03/19 00:44:14;;;;;;;117.43;37.33;;;;;;;;;;5092595;28;20200;-70
2022/03/19 00:46:41;;;;;;;119.63;35.65;;;;;;;;;;5092342;28;20712;-70
2022/03/19 00:49:08;;;;;;;115.53;37.63;;;;;;;;;;5091983;28;20291;-71
2022/03/19 00:51:38;;;;;;;120.78;35.30;;;;;;;;;;5092750;28;20295;-70
2022/03/19 00:54:06;;;;;;;119.05;37.22;;;;;;;;;;5092608;28;20235;-70
2022/03/19 00:56:33;;;;;;;113.18;34.20;;;;;;;;;;5092601;28;20593;-70
2022/03/19 00:59:00;;;;;;;111.95;34.13;;;;;;;;;;5091580;28;20219;-72
2022/03/19 01:01:29;;;;;;;126.30;36.50;;;;;;;;;;5092652;28;20247;-70
2022/03/19 01:03:56;;;;;;;114.70;37.63;;;;;;;;;;5092167;28;20205;-71
2022/03/19 01:06:23;;;;;;;114.25;33.65;;;;;;;;;;5092117;28;20240;-70
2022/03/19 01:08:50;;;;;;;117.15;36.58;;;;;;;;;;5089682;28;20204;-73
2022/03/19 01:11:23;;;;;;;117.20;35.40;;;;;;;;;;5108564;28;20203;-70
2022/03/19 01:13:50;;;;;;;114.65;37.13;;;;;;;;;;5112475;28;20214;-70
2022/03/19 01:16:18;;;;;;;108.65;33.65;;;;;;;;;;5112661;28;20230;-70
2022/03/19 01:18:47;;;;;;;109.47;34.50;;;;;;;;;;5112051;28;20640;-69
2022/03/19 01:21:14;;;;;;;111.97;32.63;;;;;;;;;;5112501;28;20340;-70
2022/03/19 01:23:41;;;;;;;104.82;31.15;;;;;;;;;;5112603;28;20203;-70
2022/03/19 01:26:08;;;;;;;112.20;33.88;;;;;;;;;;5112465;28;20227;-69
2022/03/19 01:28:36;;;;;;;117.00;36.80;;;;;;;;;;5112163;27;20213;-70
2022/03/19 01:31:03;;;;;;;111.03;32.58;;;;;;;;;;5112542;28;20294;-70
2022/03/19 01:33:30;;;;;;;105.10;33.28;;;;;;;;;;5112255;28;20664;-70
2022/03/19 01:35:58;;;;;;;112.90;35.00;;;;;;;;;;5112345;28;20224;-71
2022/03/19 01:38:26;;;;;;;116.10;34.85;;;;;;;;;;5111443;28;20647;-70
2022/03/19 01:40:53;;;;;;;112.13;34.65;;;;;;;;;;5108450;28;20695;-70
2022/03/19 01:43:20;;;;;;;112.65;34.08;;;;;;;;;;5112599;27;20597;-70
2022/03/19 01:45:48;;;;;;;116.72;35.50;;;;;;;;;;5111525;28;20563;-70
2022/03/19 01:48:15;;;;;;;105.13;32.03;;;;;;;;;;5111316;28;20298;-69
2022/03/19 01:50:42;;;;;;;113.03;33.10;;;;;;;;;;5112149;28;20290;-70
2022/03/19 01:53:10;;;;;;;114.63;33.55;;;;;;;;;;5112159;28;20234;-70
2022/03/19 01:55:38;;;;;;;112.00;33.38;;;;;;;;;;5112512;28;20294;-71
2022/03/19 01:58:05;;;;;;;108.22;31.70;;;;;;;;;;5111855;28;20213;-70
2022/03/19 02:00:32;;;;;;;109.97;35.50;;;;;;;;;;5112143;28;20227;-70
2022/03/19 02:03:00;;;;;;;114.55;34.67;;;;;;;;;;5111822;28;20298;-72
2022/03/19 02:05:27;;;;;;;106.45;32.60;;;;;;;;;;5111783;28;20289;-70
2022/03/19 02:07:54;;;;;;;109.88;34.30;;;;;;;;;;5111110;28;20204;-70
2022/03/19 02:10:23;;;;;;;101.03;30.42;;;;;;;;;;5112265;28;20204;-70
2022/03/19 02:12:52;;;;;;;107.07;29.10;;;;;;;;;;5099543;28;20287;-70
2022/03/19 02:15:19;;;;;;;109.18;33.40;;;;;;;;;;5091814;28;20572;-70
2022/03/19 02:17:47;;;;;;;108.75;33.60;;;;;;;;;;5090822;28;20658;-69
2022/03/19 02:20:14;;;;;;;105.30;31.05;;;;;;;;;;5091280;28;20298;-68
2022/03/19 02:25:34;;;;;;;103.10;31.77;;;;;;;;;;5091326;28;20294;-68
2022/03/19 02:25:35;;;;;;;109.20;33.75;;;;;;;;;;5091256;28;20276;-70
2022/03/19 02:28:03;;;;;;;106.15;31.92;;;;;;;;;;5090681;28;20201;-70
2022/03/19 02:30:30;;;;;;;111.75;33.17;;;;;;;;;;5093254;28;20290;-68
2022/03/19 02:32:58;;;;;;;111.20;32.70;;;;;;;;;;5111736;28;20203;-68
2022/03/19 02:35:25;;;;;;;106.50;32.50;;;;;;;;;;5111758;28;20212;-68
2022/03/19 02:37:52;;;;;;;109.07;32.42;;;;;;;;;;5111159;28;20234;-68
2022/03/19 02:40:20;;;;;;;109.55;33.13;;;;;;;;;;5111412;28;20219;-69
2022/03/19 02:42:50;;;;;;;112.35;31.83;;;;;;;;;;5110895;28;20310;-69
2022/03/19 02:45:18;;;;;;;103.47;31.23;;;;;;;;;;5108963;28;20203;-69
2022/03/19 02:48:00;;;;;;;105.93;32.35;;;;;;;;;;5110483;28;20746;-72
2022/03/19 02:50:28;;;;;;;107.25;33.95;;;;;;;;;;5111647;28;20295;-70
2022/03/19 02:52:56;;;;;;;105.90;31.33;;;;;;;;;;5111496;28;20214;-69
2022/03/19 02:55:23;;;;;;;104.10;30.42;;;;;;;;;;5111766;28;20200;-69
2022/03/19 02:57:51;;;;;;;107.88;34.45;;;;;;;;;;5112728;28;20220;-68
2022/03/19 03:00:18;;;;;;;109.07;32.47;;;;;;;;;;5115301;28;20775;-69
2022/03/19 03:02:46;;;;;;;109.97;32.72;;;;;;;;;;5115041;28;20310;-70
2022/03/19 03:05:13;;;;;;;97.40;27.35;;;;;;;;;;5114926;28;20295;-69
2022/03/19 03:07:41;;;;;;;105.38;31.30;;;;;;;;;;5114186;28;20227;-69
2022/03/19 03:10:09;;;;;;;105.30;30.23;;;;;;;;;;5115000;28;20206;-69
2022/03/19 03:12:36;;;;;;;109.38;32.47;;;;;;;;;;5115107;28;20583;-69
2022/03/19 03:15:06;;;;;;;111.32;31.80;;;;;;;;;;5114130;28;20280;-72
2022/03/19 03:17:34;;;;;;;103.28;30.42;;;;;;;;;;5092483;28;20247;-69
2022/03/19 03:20:01;;;;;;;104.05;33.03;;;;;;;;;;5094212;28;20221;-69
2022/03/19 03:22:29;;;;;;;110.90;34.33;;;;;;;;;;5094243;28;20668;-69
2022/03/19 03:24:56;;;;;;;103.93;32.72;;;;;;;;;;5094161;28;20214;-70
2022/03/19 03:27:23;;;;;;;106.38;30.15;;;;;;;;;;5093539;28;20256;-69
2022/03/19 03:29:51;;;;;;;103.57;31.15;;;;;;;;;;5094079;28;20222;-69
2022/03/19 03:32:20;;;;;;;103.03;29.27;;;;;;;;;;5094121;28;20200;-71
2022/03/19 03:34:47;;;;;;;107.18;32.05;;;;;;;;;;5094720;28;20226;-69
2022/03/19 03:37:14;;;;;;;110.50;31.65;;;;;;;;;;5093364;28;20230;-69
2022/03/19 03:39:41;;;;;;;103.45;30.80;;;;;;;;;;5094167;28;20299;-69
2022/03/19 03:42:08;;;;;;;109.47;30.02;;;;;;;;;;5094110;28;20200;-73
2022/03/19 03:44:39;;;;;;;105.18;28.52;;;;;;;;;;5094088;28;20305;-69
2022/03/19 03:47:07;;;;;;;102.28;29.63;;;;;;;;;;5093377;28;20231;-74
2022/03/19 03:49:35;;;;;;;102.72;30.67;;;;;;;;;;5091128;28;20206;-68
2022/03/19 03:52:02;;;;;;;105.63;29.65;;;;;;;;;;5093900;28;20390;-68
2022/03/19 03:54:30;;;;;;;108.72;30.50;;;;;;;;;;5093883;28;20645;-69
2022/03/19 03:56:57;;;;;;;106.60;30.35;;;;;;;;;;5093674;28;20262;-70
2022/03/19 03:59:24;;;;;;;101.10;28.40;;;;;;;;;;5093015;28;20295;-71
2022/03/19 04:01:51;;;;;;;108.60;30.00;;;;;;;;;;5093675;28;20765;-69
2022/03/19 04:04:18;;;;;;;109.47;28.95;;;;;;;;;;5093765;28;20295;-69
2022/03/19 04:06:47;;;;;;;107.15;31.02;;;;;;;;;;5093528;28;20260;-69
2022/03/19 04:09:14;;;;;;;103.90;31.33;;;;;;;;;;5092049;28;20226;-68
2022/03/19 04:11:41;;;;;;;108.90;32.35;;;;;;;;;;5093428;28;20206;-68
2022/03/19 04:14:09;;;;;;;106.68;30.67;;;;;;;;;;5093370;28;20242;-69
2022/03/19 04:16:37;;;;;;;108.30;32.63;;;;;;;;;;5093389;28;20228;-69
2022/03/19 04:19:05;;;;;;;105.20;29.88;;;;;;;;;;5091709;28;20208;-69
2022/03/19 04:21:32;;;;;;;100.55;29.95;;;;;;;;;;5090624;28;20260;-69
2022/03/19 04:24:00;;;;;;;110.50;32.88;;;;;;;;;;5093315;28;20584;-69
2022/03/19 04:26:27;;;;;;;105.53;29.98;;;;;;;;;;5092931;28;20856;-69
2022/03/19 04:28:54;;;;;;;110.22;31.75;;;;;;;;;;5091949;28;20556;-69
2022/03/19 04:31:22;;;;;;;103.88;29.27;;;;;;;;;;5093208;28;20207;-70
2022/03/19 04:33:49;;;;;;;104.13;30.83;;;;;;;;;;5092953;28;20204;-68
2022/03/19 04:36:32;;;;;;;108.45;31.02;;;;;;;;;;5093088;28;20228;-68
2022/03/19 04:39:02;;;;;;;109.95;31.08;;;;;;;;;;5092337;28;20245;-69
2022/03/19 04:41:29;;;;;;;106.43;31.70;;;;;;;;;;5092798;28;20310;-69
2022/03/19 04:43:57;;;;;;;97.20;28.75;;;;;;;;;;5092892;28;20214;-69
2022/03/19 04:46:24;;;;;;;109.35;29.58;;;;;;;;;;5092839;28;20640;-69
2022/03/19 04:48:52;;;;;;;112.85;31.27;;;;;;;;;;5092330;28;20210;-70
2022/03/19 04:51:20;;;;;;;102.65;28.25;;;;;;;;;;5092168;28;20286;-69
2022/03/19 04:53:50;;;;;;;103.28;28.98;;;;;;;;;;5092063;28;20299;-69
2022/03/19 04:56:19;;;;;;;106.32;30.63;;;;;;;;;;5092654;28;20311;-69
2022/03/19 04:58:46;;;;;;;100.93;29.63;;;;;;;;;;5092263;28;20374;-68
2022/03/19 05:01:13;;;;;;;110.78;29.98;;;;;;;;;;5092662;28;20643;-68
2022/03/19 05:03:40;;;;;;;100.95;29.52;;;;;;;;;;5092413;28;20208;-71
2022/03/19 05:06:08;;;;;;;104.97;29.05;;;;;;;;;;5092531;28;20226;-69
2022/03/19 05:08:35;;;;;;;109.45;29.88;;;;;;;;;;5092061;28;20211;-71
2022/03/19 05:11:13;;;;;;;100.07;27.92;;;;;;;;;;5092660;28;20211;-69
2022/03/19 05:13:41;;;;;;;101.93;29.92;;;;;;;;;;5092363;28;20204;-69
2022/03/19 05:16:09;;;;;;;102.80;27.70;;;;;;;;;;5092333;28;20225;-69
2022/03/19 05:18:36;;;;;;;100.10;28.48;;;;;;;;;;5091623;28;20292;-69
2022/03/19 05:21:03;;;;;;;110.22;31.30;;;;;;;;;;5091373;28;20315;-69
2022/03/19 05:23:31;;;;;;;104.25;30.27;;;;;;;;;;5092378;28;20204;-69
2022/03/19 05:25:58;;;;;;;109.13;32.00;;;;;;;;;;5092312;28;20281;-69
2022/03/19 05:28:26;;;;;;;107.93;29.23;;;;;;;;;;5091531;28;20208;-71
2022/03/19 05:30:54;;;;;;;104.50;27.40;;;;;;;;;;5092485;28;20261;-68
2022/03/19 05:34:29;;;;;;;104.10;28.17;;;;;;;;;;5091926;28;20236;-70
2022/03/19 05:36:10;;;;;;;105.72;31.33;;;;;;;;;;5091766;28;20228;-68
2022/03/19 05:38:38;;;;;;;102.38;29.83;;;;;;;;;;5091346;28;20208;-71
2022/03/19 05:41:05;;;;;;;104.53;28.27;;;;;;;;;;5091969;28;20220;-69
2022/03/19 05:43:32;;;;;;;101.72;30.08;;;;;;;;;;5091831;28;20743;-69
2022/03/19 05:46:00;;;;;;;106.45;30.10;;;;;;;;;;5091714;28;20315;-69
2022/03/19 05:48:28;;;;;;;103.43;28.90;;;;;;;;;;5091177;28;20303;-69
2022/03/19 05:50:55;;;;;;;104.25;28.70;;;;;;;;;;5091967;28;20201;-69
2022/03/19 05:53:22;;;;;;;105.65;29.08;;;;;;;;;;5091742;28;20215;-72
2022/03/19 05:55:50;;;;;;;104.35;29.13;;;;;;;;;;5092071;28;20231;-69
2022/03/19 05:58:17;;;;;;;101.88;27.30;;;;;;;;;;5091050;28;20217;-69
2022/03/19 06:00:44;;;;;;;102.38;29.75;;;;;;;;;;5091887;28;20231;-69
2022/03/19 06:03:12;;;;;;;110.53;29.73;;;;;;;;;;5091715;28;20204;-70
2022/03/19 06:05:39;;;;;;;101.50;28.88;;;;;;;;;;5091787;28;20634;-69
2022/03/19 06:08:07;;;;;;;98.32;29.25;;;;;;;;;;5091045;28;20211;-69
2022/03/19 06:10:35;;;;;;;102.13;28.58;;;;;;;;;;5091416;28;20239;-69
2022/03/19 06:13:03;;;;;;;100.90;29.55;;;;;;;;;;5091491;28;20302;-69
2022/03/19 06:15:30;;;;;;;99.55;29.30;;;;;;;;;;5091687;28;20236;-69
2022/03/19 06:17:57;;;;;;;102.47;28.80;;;;;;;;;;5091087;28;20322;-69
2022/03/19 06:20:26;;;;;;;103.78;28.02;;;;;;;;;;5091589;28;20703;-69
2022/03/19 06:22:53;;;;;;;100.15;28.67;;;;;;;;;;5091567;28;20208;-71
2022/03/19 06:25:20;;;;;;;99.07;26.95;;;;;;;;;;5091436;28;20204;-69
2022/03/19 06:27:47;;;;;;;97.20;29.15;;;;;;;;;;5090970;28;20224;-69
2022/03/19 06:30:14;;;;;;;100.82;28.73;;;;;;;;;;5091484;28;20210;-69
2022/03/19 06:32:42;;;;;;;99.45;27.42;;;;;;;;;;5093300;28;20207;-70
2022/03/19 06:35:10;;;;;;;102.53;27.30;;;;;;;;;;5095889;28;20212;-71
2022/03/19 06:37:37;;;;;;;99.90;28.48;;;;;;;;;;5094667;28;20220;-69
2022/03/19 06:40:07;;;;;;;103.40;29.27;;;;;;;;;;5095258;28;20228;-69
2022/03/19 06:42:34;;;;;;;104.88;27.65;;;;;;;;;;5095238;28;20232;-69
2022/03/19 06:45:01;;;;;;;100.40;27.73;;;;;;;;;;5095325;28;20711;-71
2022/03/19 06:47:30;;;;;;;103.90;28.33;;;;;;;;;;5094375;28;20238;-69
2022/03/19 06:49:57;;;;;;;103.50;26.58;;;;;;;;;;5095197;28;20250;-69
2022/03/19 06:52:28;;;;;;;97.25;25.92;;;;;;;;;;5094885;28;20197;-69
2022/03/19 06:54:57;;;;;;;99.22;28.25;;;;;;;;;;5095297;28;20239;-72
2022/03/19 06:57:24;;;;;;;101.18;29.58;;;;;;;;;;5094403;28;20227;-70
2022/03/19 06:59:51;;;;;;;97.78;25.83;;;;;;;;;;5095242;28;20205;-69
2022/03/19 07:02:18;;;;;;;100.57;29.73;;;;;;;;;;5094876;28;20319;-70
2022/03/19 07:04:45;;;;;;;100.15;27.52;;;;;;;;;;5094887;28;20204;-69
2022/03/19 07:07:12;;;;;;;92.38;25.55;;;;;;;;;;5094138;28;20795;-70
2022/03/19 07:09:40;;;;;;;90.65;24.35;;;;;;;;;;5094802;28;20299;-69
2022/03/19 07:12:11;;;;;;;95.07;26.33;;;;;;;;;;5094808;28;20203;-70
2022/03/19 07:14:38;;;;;;;90.80;24.60;;;;;;;;;;5094835;28;20215;-69
2022/03/19 07:17:05;;;;;;;94.80;26.83;;;;;;;;;;5094487;28;20605;-70
2022/03/19 07:19:32;;;;;;;92.53;23.90;;;;;;;;;;5094133;28;20298;-69
2022/03/19 07:22:00;;;;;;;92.75;24.42;;;;;;;;;;5094763;28;20227;-70
2022/03/19 07:24:27;;;;;;;94.90;26.92;;;;;;;;;;5094437;28;20744;-69
2022/03/19 07:26:54;;;;;;;93.07;25.00;;;;;;;;;;5094220;28;20301;-69
2022/03/19 07:29:22;;;;;;;90.00;24.23;;;;;;;;;;5093768;28;20303;-70
2022/03/19 07:31:50;;;;;;;90.82;23.50;;;;;;;;;;5094448;28;20200;-70
2022/03/19 07:34:17;;;;;;;92.95;23.40;;;;;;;;;;5094401;28;20295;-70
2022/03/19 07:36:44;;;;;;;96.10;24.25;;;;;;;;;;5094364;28;20220;-70
2022/03/19 07:39:11;;;;;;;91.00;22.35;;;;;;;;;;5093563;28;20303;-70
2022/03/19 07:41:48;;;;;;;92.68;24.02;;;;;;;;;;5094197;28;20720;-69
2022/03/19 07:44:15;;;;;;;93.45;25.52;;;;;;;;;;5093227;28;20230;-71
2022/03/19 07:46:43;;;;;;;88.75;21.15;;;;;;;;;;5093913;28;20220;-69
2022/03/19 07:49:11;;;;;;;91.20;24.00;;;;;;;;;;5093311;28;20208;-69
2022/03/19 07:51:38;;;;;;;89.00;22.42;;;;;;;;;;5094098;28;20205;-69
2022/03/19 07:54:06;;;;;;;91.90;23.70;;;;;;;;;;5094013;28;20204;-70
2022/03/19 07:56:33;;;;;;;89.45;22.75;;;;;;;;;;5093754;28;20228;-70
2022/03/19 07:59:00;;;;;;;84.88;22.00;;;;;;;;;;5093562;28;20322;-71
2022/03/19 08:01:27;;;;;;;88.05;21.92;;;;;;;;;;5093683;28;20586;-69
2022/03/19 08:03:55;;;;;;;91.68;22.10;;;;;;;;;;5093925;28;20613;-70
2022/03/19 08:06:23;;;;;;;85.53;21.80;;;;;;;;;;5093699;28;20319;-70
2022/03/19 08:08:50;;;;;;;85.95;21.83;;;;;;;;;;5092977;28;20676;-70
2022/03/19 08:11:17;;;;;;;87.15;21.67;;;;;;;;;;5093600;28;20220;-70
2022/03/19 08:13:45;;;;;;;90.72;21.98;;;;;;;;;;5093159;28;20257;-70
2022/03/19 08:16:12;;;;;;;85.28;20.38;;;;;;;;;;5093683;28;20312;-72
2022/03/19 08:18:39;;;;;;;87.93;21.50;;;;;;;;;;5092909;28;20209;-70
2022/03/19 08:21:08;;;;;;;90.93;21.45;;;;;;;;;;5093421;28;20204;-70
2022/03/19 08:23:35;;;;;;;88.55;21.80;;;;;;;;;;5093255;28;20215;-70
2022/03/19 08:26:02;;;;;;;98.30;24.60;;;;;;;;;;5093248;28;20224;-71
2022/03/19 08:28:30;;;;;;;88.75;23.75;;;;;;;;;;5092741;28;20212;-70
2022/03/19 08:30:58;;;;;;;84.32;19.75;;;;;;;;;;5093161;28;20216;-71
2022/03/19 08:33:25;;;;;;;85.95;20.90;;;;;;;;;;5093356;28;20229;-71
2022/03/19 08:35:52;;;;;;;87.30;19.63;;;;;;;;;;5093282;28;20728;-70
2022/03/19 08:41:05;;;;;;;88.60;21.00;;;;;;;;;;5093376;28;20427;-70
2022/03/19 08:43:32;;;;;;;87.27;20.63;;;;;;;;;;5093003;28;20594;-72
2022/03/19 08:46:00;;;;;;;88.30;20.93;;;;;;;;;;5092868;28;20478;-70
2022/03/19 08:48:27;;;;;;;92.10;21.13;;;;;;;;;;5092401;28;20534;-71
2022/03/19 08:51:39;;;;;;;84.30;21.67;;;;;;;;;;5092939;28;20532;-70
2022/03/19 08:53:42;;;;;;;87.13;20.30;;;;;;;;;;5092433;28;20455;-70
2022/03/19 08:56:09;;;;;;;82.63;20.33;;;;;;;;;;5092520;28;20225;-71
2022/03/19 08:58:37;;;;;;;85.93;23.00;;;;;;;;;;5092167;28;20211;-71
2022/03/19 09:01:04;;;;;;;86.67;20.70;;;;;;;;;;5092617;28;20448;-71
2022/03/19 09:03:32;;;;;;;88.80;21.53;;;;;;;;;;5092557;28;20484;-70
2022/03/19 09:05:59;;;;;;;87.10;21.30;;;;;;;;;;5092618;28;20525;-70
2022/03/19 09:08:27;;;;;;;88.17;22.27;;;;;;;;;;5091684;28;20537;-71
2022/03/19 09:10:57;;;;;;;83.80;20.60;;;;;;;;;;5092566;28;20527;-70
2022/03/19 09:13:25;;;;;;;91.60;22.80;;;;;;;;;;5092569;28;20528;-71
2022/03/19 09:15:52;;;;;;;84.10;22.10;;;;;;;;;;5092396;28;20464;-71
2022/03/19 09:18:20;;;;;;;86.53;21.57;;;;;;;;;;5091644;28;20537;-71
2022/03/19 09:20:47;;;;;;;82.47;20.90;;;;;;;;;;5092523;28;20834;-70
2022/03/19 09:23:14;;;;;;;84.73;20.40;;;;;;;;;;5092355;28;20504;-70
2022/03/19 09:25:42;;;;;;;86.30;22.60;;;;;;;;;;5092246;28;20533;-70
2022/03/19 09:28:10;;;;;;;91.87;22.40;;;;;;;;;;5091550;28;20458;-70
2022/03/19 09:30:37;;;;;;;90.47;23.17;;;;;;;;;;5092018;28;20547;-71
2022/03/19 09:33:04;;;;;;;93.10;22.53;;;;;;;;;;5090889;28;20533;-71
2022/03/19 09:35:32;;;;;;;88.43;21.70;;;;;;;;;;5092012;28;20456;-70
2022/03/19 09:37:59;;;;;;;87.43;20.67;;;;;;;;;;5091567;28;20446;-71
2022/03/19 09:40:26;;;;;;;86.30;21.43;;;;;;;;;;5092063;28;20954;-70
2022/03/19 09:42:54;;;;;;;86.63;20.83;;;;;;;;;;5092368;28;21012;-71
2022/03/19 09:45:23;;;;;;;91.50;22.50;;;;;;;;;;5092019;28;20460;-71
2022/03/19 09:47:51;;;;;;;91.00;22.90;;;;;;;;;;5091418;28;20601;-72
2022/03/19 09:50:18;;;;;;;84.93;21.73;;;;;;;;;;5092097;28;20449;-70
2022/03/19 09:52:45;;;;;;;81.67;19.73;;;;;;;;;;5091861;28;21005;-71
2022/03/19 09:55:15;;;;;;;87.80;23.33;;;;;;;;;;5091976;28;20442;-71
2022/03/19 09:57:42;;;;;;;83.57;20.90;;;;;;;;;;5091110;28;20480;-71
2022/03/19 10:00:10;;;;;;;90.50;22.73;;;;;;;;;;5091894;28;20452;-72
2022/03/19 10:02:52;;;;;;;87.17;22.30;;;;;;;;;;5091898;28;20573;-72
2022/03/19 10:10:45;;;;;;;82.00;20.33;;;;;;;;;;5096072;28;20414;-72
2022/03/19 10:13:12;;;;;;;83.70;21.97;;;;;;;;;;5096220;28;20481;-72
2022/03/19 10:15:41;;;;;;;83.43;22.77;;;;;;;;;;5096072;28;20446;-72
2022/03/19 10:18:10;;;;;;;84.83;24.00;;;;;;;;;;5095318;28;20473;-72
2022/03/19 10:20:38;;;;;;;83.03;21.30;;;;;;;;;;5095796;28;20454;-72
2022/03/19 10:23:05;;;;;;;78.73;21.67;;;;;;;;;;5095552;28;20478;-73
2022/03/19 10:25:33;;;;;;;82.57;22.70;;;;;;;;;;5095887;28;20477;-72
2022/03/19 10:28:01;;;;;;;91.70;24.73;;;;;;;;;;5095062;28;20457;-72
2022/03/19 10:30:35;;;;;;;84.33;24.53;;;;;;;;;;5095642;28;20462;-72
2022/03/19 10:33:02;;;;;;;87.30;25.10;;;;;;;;;;5095504;28;20450;-72
2022/03/19 10:35:32;;;;;;;84.93;24.90;;;;;;;;;;5095326;28;20537;-72
2022/03/19 10:38:01;;;;;;;84.03;24.73;;;;;;;;;;5094684;28;20515;-71
2022/03/19 10:40:38;;;;;;;86.47;22.70;;;;;;;;;;5095688;28;20446;-71
2022/03/19 10:43:06;;;;;;;87.20;24.50;;;;;;;;;;5095421;28;20488;-71
2022/03/19 10:45:34;;;;;;;86.20;25.47;;;;;;;;;;5095374;28;20916;-72
2022/03/19 10:48:02;;;;;;;87.40;22.27;;;;;;;;;;5094226;28;20479;-71
2022/03/19 10:50:29;;;;;;;86.43;23.60;;;;;;;;;;5095413;28;20818;-71
2022/03/19 10:52:58;;;;;;;80.67;21.17;;;;;;;;;;5095031;28;20442;-72
2022/03/19 10:55:25;;;;;;;85.27;20.43;;;;;;;;;;5095294;28;20442;-71
2022/03/19 10:57:53;;;;;;;82.03;20.87;;;;;;;;;;5094383;28;20462;-70
2022/03/19 11:00:20;;;;;;;86.33;20.70;;;;;;;;;;5094951;28;20549;-72
2022/03/19 11:02:48;;;;;;;75.10;16.87;;;;;;;;;;5095047;28;20535;-71
2022/03/19 11:05:18;;;;;;;77.80;16.43;;;;;;;;;;5094887;28;20853;-71
2022/03/19 11:07:46;;;;;;;72.87;14.83;;;;;;;;;;5094225;28;20700;-71
2022/03/19 11:10:15;;;;;;;73.87;14.87;;;;;;;;;;5094593;28;20442;-71
2022/03/19 11:12:50;;;;;;;72.70;13.87;;;;;;;;;;5094790;28;20533;-72
2022/03/19 11:15:18;;;;;;;73.63;14.20;;;;;;;;;;5095155;28;20478;-70
2022/03/19 11:17:46;;;;;;;71.03;13.43;;;;;;;;;;5093801;28;20544;-69
2022/03/19 11:20:14;;;;;;;71.80;13.20;;;;;;;;;;5093484;28;20449;-69
2022/03/19 11:22:42;;;;;;;70.00;13.37;;;;;;;;;;5094425;28;20484;-70
2022/03/19 11:25:20;;;;;;;75.67;13.23;;;;;;;;;;5094472;28;20470;-69
2022/03/19 11:27:50;;;;;;;72.43;12.80;;;;;;;;;;5094049;28;20837;-70
2022/03/19 11:30:18;;;;;;;71.90;13.73;;;;;;;;;;5094453;28;20458;-70
2022/03/19 11:33:01;;;;;;;72.20;12.23;;;;;;;;;;5094478;28;20439;-70
2022/03/19 11:35:29;;;;;;;69.83;11.60;;;;;;;;;;5094436;28;20812;-70
2022/03/19 11:38:00;;;;;;;72.00;12.27;;;;;;;;;;5093417;28;20456;-71
2022/03/19 11:40:30;;;;;;;70.67;12.87;;;;;;;;;;5094660;28;20948;-71
2022/03/19 11:42:57;;;;;;;71.57;12.30;;;;;;;;;;5094277;28;20485;-71
2022/03/19 11:45:25;;;;;;;69.00;12.03;;;;;;;;;;5094403;28;20450;-69
2022/03/19 11:47:52;;;;;;;65.90;10.53;;;;;;;;;;5093466;28;20469;-69
2022/03/19 11:50:20;;;;;;;69.13;11.90;;;;;;;;;;5093983;28;20452;-73
2022/03/19 11:53:03;;;;;;;68.23;11.13;;;;;;;;;;5093865;28;20442;-72
2022/03/19 11:55:37;;;;;;;67.30;11.33;;;;;;;;;;5094094;28;20454;-70
2022/03/19 11:58:07;;;;;;;67.90;11.37;;;;;;;;;;5093307;28;20935;-71
2022/03/19 12:00:38;;;;;;;68.87;11.50;;;;;;;;;;5093938;28;20465;-70
2022/03/19 12:03:06;;;;;;;68.83;11.10;;;;;;;;;;5093681;28;20474;-71
2022/03/19 12:05:35;;;;;;;69.60;10.80;;;;;;;;;;5093333;28;20458;-71
2022/03/19 12:08:09;;;;;;;68.63;10.20;;;;;;;;;;5093114;28;20999;-73
2022/03/19 12:10:54;;;;;;;70.53;10.20;;;;;;;;;;5093506;28;20528;-72
2022/03/19 12:13:42;;;;;;;65.97;9.70;;;;;;;;;;5093434;28;20473;-71
2022/03/19 12:16:12;;;;;;;66.57;9.90;;;;;;;;;;5093826;28;20484;-71
2022/03/19 12:18:48;;;;;;;67.70;10.20;;;;;;;;;;5092647;28;20833;-71
2022/03/19 12:21:17;;;;;;;69.23;11.40;;;;;;;;;;5093474;28;20849;-72
2022/03/19 12:23:50;;;;;;;66.90;10.17;;;;;;;;;;5093329;28;20485;-69
2022/03/19 12:26:22;;;;;;;68.10;10.40;;;;;;;;;;5093464;28;20809;-72
2022/03/19 12:28:57;;;;;;;73.77;11.33;;;;;;;;;;5092925;28;20450;-71
2022/03/19 12:31:29;;;;;;;70.50;10.83;;;;;;;;;;5092982;28;20485;-72
2022/03/19 12:33:56;;;;;;;69.50;10.00;;;;;;;;;;5093629;28;20534;-71
2022/03/19 12:36:24;;;;;;;65.73;9.10;;;;;;;;;;5092988;28;20838;-71
2022/03/19 12:38:52;;;;;;;66.17;8.90;;;;;;;;;;5092475;28;20542;-71
2022/03/19 12:41:26;;;;;;;67.53;9.70;;;;;;;;;;5093183;28;20452;-71
2022/03/19 12:43:54;;;;;;;67.80;9.20;;;;;;;;;;5092980;28;20485;-71
2022/03/19 12:46:26;;;;;;;67.33;8.87;;;;;;;;;;5092801;28;20462;-71
2022/03/19 12:48:53;;;;;;;70.10;9.60;;;;;;;;;;5092132;28;20454;-73
2022/03/19 12:51:23;;;;;;;68.50;9.30;;;;;;;;;;5092947;28;20530;-71
2022/03/19 12:53:51;;;;;;;70.97;8.67;;;;;;;;;;5092716;28;20534;-68
2022/03/19 12:56:19;;;;;;;74.03;11.63;;;;;;;;;;5092666;28;20467;-71
2022/03/19 12:58:49;;;;;;;67.87;9.40;;;;;;;;;;5092117;28;20875;-71
2022/03/19 13:01:18;;;;;;;67.37;9.07;;;;;;;;;;5092541;28;20450;-71
2022/03/19 13:03:45;;;;;;;65.00;8.33;;;;;;;;;;5092637;28;20581;-71
2022/03/19 13:06:14;;;;;;;64.27;7.67;;;;;;;;;;5092417;28;20970;-71
2022/03/19 13:08:46;;;;;;;65.30;7.70;;;;;;;;;;5091918;28;20458;-71
2022/03/19 13:11:13;;;;;;;67.63;7.57;;;;;;;;;;5092730;28;20529;-71
2022/03/19 13:13:41;;;;;;;64.20;7.40;;;;;;;;;;5092445;28;20441;-71
2022/03/19 13:16:10;;;;;;;64.30;7.80;;;;;;;;;;5092517;28;20472;-71
2022/03/19 13:18:37;;;;;;;66.53;7.80;;;;;;;;;;5091810;28;20443;-69
2022/03/19 13:21:07;;;;;;;63.30;6.40;;;;;;;;;;5092425;28;20527;-71
2022/03/19 13:23:34;;;;;;;64.70;7.33;;;;;;;;;;5092333;28;20474;-71
2022/03/19 13:26:01;;;;;;;65.40;8.37;;;;;;;;;;5092165;28;20473;-71
2022/03/19 13:28:29;;;;;;;66.60;7.70;;;;;;;;;;5091564;28;20485;-71
2022/03/19 13:30:57;;;;;;;64.00;7.00;;;;;;;;;;5092030;28;20543;-72
2022/03/19 13:33:28;;;;;;;64.20;6.37;;;;;;;;;;5092111;28;20536;-71
2022/03/19 13:35:55;;;;;;;62.97;6.20;;;;;;;;;;5092150;28;20470;-71
2022/03/19 13:38:23;;;;;;;63.17;6.43;;;;;;;;;;5091471;28;20544;-70
2022/03/19 13:40:52;;;;;;;66.70;6.93;;;;;;;;;;5091904;28;20457;-71
2022/03/19 13:43:20;;;;;;;68.67;7.17;;;;;;;;;;5091143;28;20487;-70
2022/03/19 13:45:47;;;;;;;64.60;6.57;;;;;;;;;;5092033;28;20534;-71
2022/03/19 13:48:15;;;;;;;63.33;6.60;;;;;;;;;;5091369;28;20943;-71
2022/03/19 13:50:57;;;;;;;62.80;6.23;;;;;;;;;;5091885;28;20832;-72
2022/03/19 13:53:26;;;;;;;63.80;6.43;;;;;;;;;;5091775;28;20453;-74
2022/03/19 13:55:55;;;;;;;62.07;6.10;;;;;;;;;;5091686;28;20471;-74
2022/03/19 13:58:23;;;;;;;61.90;6.00;;;;;;;;;;5091207;28;20450;-74
2022/03/19 14:00:50;;;;;;;62.30;5.80;;;;;;;;;;5091842;28;20453;-74
2022/03/19 14:03:23;;;;;;;62.20;6.03;;;;;;;;;;5091610;28;20861;-74
2022/03/19 14:05:54;;;;;;;62.30;5.27;;;;;;;;;;5092092;28;20482;-74
2022/03/19 14:08:22;;;;;;;62.17;5.17;;;;;;;;;;5090986;28;20454;-74
2022/03/19 14:10:50;;;;;;;62.40;6.60;;;;;;;;;;5091677;28;20518;-74
2022/03/19 14:13:18;;;;;;;65.37;5.67;;;;;;;;;;5091828;28;21052;-74
2022/03/19 14:15:48;;;;;;;66.47;6.10;;;;;;;;;;5091711;28;20460;-74
2022/03/19 14:18:22;;;;;;;64.13;6.37;;;;;;;;;;5090779;28;20449;-74
2022/03/19 14:20:49;;;;;;;67.20;6.63;;;;;;;;;;5091919;28;20447;-74
2022/03/19 14:23:18;;;;;;;63.73;5.80;;;;;;;;;;5091808;28;20487;-73
2022/03/19 14:25:46;;;;;;;63.50;5.00;;;;;;;;;;5091776;28;20505;-74
2022/03/19 14:28:14;;;;;;;61.40;5.10;;;;;;;;;;5090834;28;20961;-74
2022/03/19 14:30:41;;;;;;;64.03;5.30;;;;;;;;;;5091475;28;20548;-74